Time;durP1;ratioP1;P1;durP2;ratioP2;P2;SDS_P1;SDS_P2;PMS_P1;PMS_P2;Temp;Humidity;BMP_temperature;BMP_pressure;BME280_temperature;BME280_humidity;BME280_pressure;Samples;Min_cycle;Max_cycle;Signal;HPM_P1;HPM_P2
2023/10/25 00:04:33;;;;;;;49.60;32.20;;;;;;;11.67;100.00;99102.39;215932;1288;140855;-96
2023/10/25 00:09:34;;;;;;;43.70;29.60;;;;;;;11.66;100.00;99096.04;214912;1285;140232;-94
2023/10/25 00:14:35;;;;;;;52.40;32.60;;;;;;;11.64;100.00;99097.48;215551;1284;139353;-94
2023/10/25 00:19:36;;;;;;;50.90;31.40;;;;;;;11.64;100.00;99096.54;214911;1285;140269;-94
2023/10/25 00:24:37;;;;;;;60.20;34.40;;;;;;;11.62;100.00;99091.45;215907;1285;139883;-96
2023/10/25 00:29:38;;;;;;;53.40;33.90;;;;;;;11.61;100.00;99082.02;215152;1288;140443;-92
2023/10/25 00:34:38;;;;;;;52.10;34.60;;;;;;;11.59;100.00;99077.15;215176;1286;139354;-93
2023/10/25 00:39:39;;;;;;;50.80;34.00;;;;;;;11.57;100.00;99077.39;214464;1286;140064;-92
2023/10/25 00:44:40;;;;;;;78.50;40.30;;;;;;;11.55;100.00;99073.48;215367;1288;140439;-92
2023/10/25 00:49:44;;;;;;;53.10;35.20;;;;;;;11.53;100.00;99064.77;214717;1285;140492;-93
2023/10/25 00:54:45;;;;;;;53.90;35.30;;;;;;;11.53;100.00;99059.98;215169;1288;139754;-93
2023/10/25 00:59:45;;;;;;;52.30;35.10;;;;;;;11.49;100.00;99053.90;215348;1286;140221;-92
2023/10/25 01:04:46;;;;;;;49.50;31.40;;;;;;;11.51;100.00;99051.90;215882;1288;139003;-92
2023/10/25 01:09:47;;;;;;;49.10;32.60;;;;;;;11.53;100.00;99057.70;214940;1286;140259;-91
2023/10/25 01:14:49;;;;;;;53.10;32.20;;;;;;;11.56;100.00;99061.04;215223;1285;139751;-93
2023/10/25 01:19:50;;;;;;;50.80;33.10;;;;;;;11.55;100.00;99057.05;214776;1288;140712;-93
2023/10/25 01:24:51;;;;;;;48.00;31.40;;;;;;;11.54;100.00;99055.79;215304;1285;139599;-90
2023/10/25 01:29:51;;;;;;;54.60;32.90;;;;;;;11.53;100.00;99061.09;214873;1287;140519;-90
2023/10/25 01:34:52;;;;;;;47.40;31.10;;;;;;;11.52;100.00;99058.10;214977;1288;139847;-90
2023/10/25 01:39:52;;;;;;;45.70;30.50;;;;;;;11.50;100.00;99056.16;214239;1288;140362;-88
2023/10/25 01:44:53;;;;;;;44.90;30.10;;;;;;;11.50;100.00;99054.05;214779;1288;140152;-89
2023/10/25 01:49:54;;;;;;;45.10;29.00;;;;;;;11.47;100.00;99048.65;214322;1285;140752;-90
2023/10/25 01:54:54;;;;;;;43.10;28.40;;;;;;;11.46;100.00;99047.56;214564;1288;139149;-89
2023/10/25 01:59:55;;;;;;;47.30;28.20;;;;;;;11.45;100.00;99043.16;214219;1286;140702;-89
2023/10/25 02:04:56;;;;;;;40.10;26.90;;;;;;;11.45;100.00;99036.08;214761;1288;139035;-91
2023/10/25 02:09:56;;;;;;;38.30;26.60;;;;;;;11.44;100.00;99027.45;214430;1284;140334;-89
2023/10/25 02:14:57;;;;;;;43.30;27.80;;;;;;;11.44;100.00;99027.60;214999;1285;139107;-90
2023/10/25 02:19:57;;;;;;;39.00;25.20;;;;;;;11.45;100.00;99037.73;214134;1292;140243;-90
2023/10/25 02:24:58;;;;;;;41.30;26.80;;;;;;;11.45;100.00;99041.35;214932;1285;138968;-89
2023/10/25 02:29:58;;;;;;;38.90;25.20;;;;;;;11.47;100.00;99048.89;214428;1289;139999;-91
2023/10/25 02:34:59;;;;;;;40.20;26.50;;;;;;;11.47;100.00;99045.81;214694;1286;139492;-91
2023/10/25 02:39:59;;;;;;;37.80;26.00;;;;;;;11.47;100.00;99050.31;214262;1289;140006;-90
2023/10/25 02:45:00;;;;;;;39.60;26.70;;;;;;;11.48;100.00;99056.75;214896;1292;139290;-91
2023/10/25 02:50:00;;;;;;;43.60;26.90;;;;;;;11.49;100.00;99055.48;214182;1289;140277;-90
2023/10/25 02:55:01;;;;;;;41.20;26.60;;;;;;;11.51;100.00;99053.41;214854;1286;139055;-90
2023/10/25 03:00:02;;;;;;;41.90;27.10;;;;;;;11.49;100.00;99055.31;214200;1289;140002;-90
2023/10/25 03:05:03;;;;;;;42.10;27.50;;;;;;;11.49;100.00;99051.54;214760;1289;138990;-89
2023/10/25 03:10:04;;;;;;;41.90;27.80;;;;;;;11.51;100.00;99050.80;214248;1285;140300;-90
2023/10/25 03:15:05;;;;;;;46.40;28.30;;;;;;;11.52;100.00;99052.59;214788;1289;139664;-89
2023/10/25 03:20:06;;;;;;;45.60;28.50;;;;;;;11.53;100.00;99052.50;214206;1289;140162;-89
2023/10/25 03:25:07;;;;;;;42.60;28.00;;;;;;;11.55;100.00;99056.96;214623;1286;139490;-89
2023/10/25 03:30:08;;;;;;;46.20;29.30;;;;;;;11.56;100.00;99060.02;214461;1285;140193;-90
2023/10/25 03:35:11;;;;;;;39.70;27.70;;;;;;;11.58;100.00;99056.45;214635;1290;139675;-89
2023/10/25 03:40:11;;;;;;;46.30;28.80;;;;;;;11.58;100.00;99046.06;214231;1285;140316;-89
2023/10/25 03:45:12;;;;;;;44.00;28.30;;;;;;;11.58;100.00;99049.84;214789;1288;139711;-89
2023/10/25 03:50:13;;;;;;;46.10;28.40;;;;;;;11.60;100.00;99050.54;214096;1285;140127;-91
2023/10/25 03:55:13;;;;;;;40.10;26.00;;;;;;;11.59;100.00;99048.17;214741;1285;139285;-90
2023/10/25 04:00:14;;;;;;;47.80;29.60;;;;;;;11.60;100.00;99054.63;214237;1285;140309;-90
2023/10/25 04:05:14;;;;;;;42.40;27.50;;;;;;;11.60;100.00;99052.90;214821;1288;139522;-89
2023/10/25 04:10:15;;;;;;;44.50;27.10;;;;;;;11.59;100.00;99052.35;213984;1285;140321;-91
2023/10/25 04:15:15;;;;;;;43.60;26.70;;;;;;;11.58;100.00;99052.90;214664;1286;139928;-89
2023/10/25 04:20:16;;;;;;;37.40;24.30;;;;;;;11.58;100.00;99050.08;214244;1284;140350;-90
2023/10/25 04:25:17;;;;;;;43.00;27.50;;;;;;;11.58;100.00;99046.23;214630;1289;139432;-90
2023/10/25 04:30:17;;;;;;;38.00;25.10;;;;;;;11.57;100.00;99048.43;214079;1286;140195;-90
2023/10/25 04:35:18;;;;;;;41.00;26.10;;;;;;;11.57;100.00;99046.15;214542;1285;139070;-90
2023/10/25 04:40:19;;;;;;;37.80;25.30;;;;;;;11.56;100.00;99043.72;214195;1287;140439;-90
2023/10/25 04:45:20;;;;;;;36.70;24.30;;;;;;;11.56;100.00;99038.91;214613;1286;140264;-89
2023/10/25 04:50:24;;;;;;;39.40;26.10;;;;;;;11.55;100.00;99041.05;214107;1288;140318;-89
2023/10/25 04:55:26;;;;;;;37.80;25.40;;;;;;;11.54;100.00;99045.48;214361;1284;139194;-89
2023/10/25 05:00:28;;;;;;;39.90;25.80;;;;;;;11.53;100.00;99042.58;214355;1286;140181;-89
2023/10/25 05:05:28;;;;;;;37.80;24.20;;;;;;;11.53;100.00;99037.71;214560;1291;138780;-88
2023/10/25 05:10:29;;;;;;;40.50;27.30;;;;;;;11.52;100.00;99037.71;214186;1289;140262;-88
2023/10/25 05:15:31;;;;;;;39.20;24.00;;;;;;;11.50;100.00;99041.70;214432;1285;139398;-88
2023/10/25 05:20:32;;;;;;;35.10;22.00;;;;;;;11.49;100.00;99049.56;213839;1286;139925;-89
2023/10/25 05:25:32;;;;;;;38.40;24.50;;;;;;;11.49;100.00;99058.23;214617;1286;139423;-88
2023/10/25 05:30:33;;;;;;;38.10;23.70;;;;;;;11.50;100.00;99068.21;214181;1286;140397;-89
2023/10/25 05:35:34;;;;;;;41.70;23.10;;;;;;;11.50;100.00;99066.40;214772;1285;98058;-89
2023/10/25 05:40:35;;;;;;;38.40;24.00;;;;;;;11.50;100.00;99069.78;214059;1288;140104;-89
2023/10/25 05:45:38;;;;;;;36.80;24.40;;;;;;;11.50;100.00;99071.76;215006;1285;139760;-88
2023/10/25 05:50:43;;;;;;;40.80;26.00;;;;;;;11.50;100.00;99070.50;214413;1286;141419;-90
2023/10/25 05:55:44;;;;;;;35.90;23.00;;;;;;;11.49;100.00;99066.27;214747;1288;140355;-90
2023/10/25 06:00:49;;;;;;;35.40;21.20;;;;;;;11.48;100.00;99061.08;214190;1290;141014;-88
2023/10/25 06:05:52;;;;;;;37.70;21.70;;;;;;;11.48;100.00;99065.17;214747;1285;97966;-88
2023/10/25 06:10:53;;;;;;;34.20;21.90;;;;;;;11.49;100.00;99072.47;213963;1286;140759;-89
2023/10/25 06:15:54;;;;;;;30.20;20.90;;;;;;;11.49;100.00;99076.40;214533;1286;139406;-89
2023/10/25 06:20:55;;;;;;;32.60;20.90;;;;;;;11.50;100.00;99082.14;214391;1288;140241;-90
2023/10/25 06:25:55;;;;;;;31.90;19.80;;;;;;;11.51;100.00;99092.98;214926;1288;139738;-90
2023/10/25 06:30:56;;;;;;;36.20;21.30;;;;;;;11.52;100.00;99095.02;214441;1285;141035;-90
2023/10/25 06:36:00;;;;;;;31.80;20.60;;;;;;;11.52;100.00;99093.14;214975;1284;99280;-90
2023/10/25 06:41:02;;;;;;;31.80;19.40;;;;;;;11.51;100.00;99094.08;214476;1285;140517;-90
2023/10/25 06:46:03;;;;;;;36.90;21.00;;;;;;;11.51;100.00;99090.71;214768;1288;140227;-91
2023/10/25 06:51:08;;;;;;;33.50;20.90;;;;;;;11.50;100.00;99085.45;214074;1285;241758;-85
2023/10/25 06:56:09;;;;;;;31.40;18.50;;;;;;;11.50;100.00;99083.23;214887;1285;139061;-85
2023/10/25 07:01:13;;;;;;;30.90;18.50;;;;;;;11.50;100.00;99082.85;214347;1284;140164;-86
2023/10/25 07:06:16;;;;;;;28.60;18.00;;;;;;;11.52;100.00;99083.36;215147;1285;98772;-85
2023/10/25 07:11:16;;;;;;;27.90;17.90;;;;;;;11.56;100.00;99085.60;218660;1284;140033;-85
2023/10/25 07:16:17;;;;;;;30.60;19.00;;;;;;;11.60;100.00;99086.35;216226;1285;139797;-85
2023/10/25 07:21:17;;;;;;;28.20;17.90;;;;;;;11.66;100.00;99077.30;214844;1285;140526;-85
2023/10/25 07:26:18;;;;;;;27.50;17.50;;;;;;;11.70;100.00;99076.20;215266;1283;140072;-84
2023/10/25 07:31:21;;;;;;;28.70;17.70;;;;;;;11.74;100.00;99079.37;214756;1285;141143;-85
2023/10/25 07:36:21;;;;;;;23.60;15.90;;;;;;;11.79;100.00;99086.41;215187;1285;97919;-85
2023/10/25 07:41:22;;;;;;;26.10;17.20;;;;;;;11.82;100.00;99085.86;214441;1285;140190;-84
2023/10/25 07:46:22;;;;;;;24.80;15.90;;;;;;;11.87;100.00;99082.16;214860;1288;139286;-84
2023/10/25 07:51:23;;;;;;;28.40;16.70;;;;;;;11.90;100.00;99078.98;214504;1284;140128;-85
2023/10/25 07:56:23;;;;;;;25.50;16.70;;;;;;;11.99;100.00;99078.89;214917;1285;139205;-85
2023/10/25 08:01:24;;;;;;;25.50;16.50;;;;;;;12.09;100.00;99081.33;214297;1285;140715;-84
2023/10/25 08:06:24;;;;;;;30.10;18.80;;;;;;;12.19;100.00;99084.25;215191;1286;99290;-85
2023/10/25 08:11:25;;;;;;;28.90;17.40;;;;;;;12.27;100.00;99093.81;215147;1283;140766;-85
2023/10/25 08:16:25;;;;;;;26.70;16.70;;;;;;;12.33;100.00;99096.46;215804;1284;139923;-84
2023/10/25 08:21:26;;;;;;;23.20;15.10;;;;;;;12.36;100.00;99103.02;214721;1285;140497;-84
2023/10/25 08:26:26;;;;;;;27.00;16.60;;;;;;;12.41;100.00;99106.64;215906;1286;139969;-84
2023/10/25 08:31:27;;;;;;;24.10;15.50;;;;;;;12.44;100.00;99107.84;215614;1285;140360;-85
2023/10/25 08:36:30;;;;;;;26.50;16.90;;;;;;;12.45;100.00;99111.38;215649;1288;97855;-86
2023/10/25 08:41:33;;;;;;;27.40;17.60;;;;;;;12.46;100.00;99115.54;214419;1285;140348;-85
2023/10/25 08:46:33;;;;;;;32.90;19.30;;;;;;;12.48;100.00;99118.57;214847;1283;139435;-85
2023/10/25 08:51:35;;;;;;;31.40;18.60;;;;;;;12.48;100.00;99118.02;214164;1285;140899;-86
2023/10/25 08:56:35;;;;;;;27.00;17.30;;;;;;;12.44;100.00;99116.59;214657;1288;139561;-86
2023/10/25 09:01:36;;;;;;;27.40;17.60;;;;;;;12.48;100.00;99113.30;214325;1285;142306;-85
2023/10/25 09:06:37;;;;;;;30.90;19.20;;;;;;;12.50;100.00;99113.02;215401;1285;139618;-85
2023/10/25 09:11:39;;;;;;;27.60;19.10;;;;;;;12.57;100.00;99111.09;214988;1285;141005;-85
2023/10/25 09:16:42;;;;;;;24.40;15.90;;;;;;;12.68;100.00;99113.17;215489;1285;139465;-85
2023/10/25 09:21:42;;;;;;;28.60;18.50;;;;;;;12.75;100.00;99107.84;214455;1285;140112;-84
2023/10/25 09:26:43;;;;;;;30.90;19.10;;;;;;;12.84;100.00;99106.48;214741;1284;139012;-85
2023/10/25 09:31:46;;;;;;;29.50;18.60;;;;;;;12.94;100.00;99112.29;214152;1285;140171;-85
2023/10/25 09:36:47;;;;;;;33.00;19.50;;;;;;;12.97;100.00;99121.23;214566;1284;140775;-85
2023/10/25 09:41:52;;;;;;;35.70;22.00;;;;;;;12.99;100.00;99119.71;214492;1285;140157;-84
2023/10/25 09:46:55;;;;;;;31.00;19.30;;;;;;;13.02;100.00;99117.45;214888;1288;138944;-85
2023/10/25 09:52:07;;;;;;;32.10;18.20;;;;;;;13.05;100.00;99124.55;213974;1288;140188;-86
2023/10/25 09:57:09;;;;;;;31.60;19.70;;;;;;;13.06;100.00;99127.46;214693;1288;139083;-85
2023/10/25 10:02:19;;;;;;;28.60;16.50;;;;;;;13.05;100.00;99115.80;214261;1282;140650;-85
2023/10/25 10:07:43;;;;;;;28.80;16.40;;;;;;;13.04;100.00;99118.90;214899;1287;139175;-86
2023/10/25 10:12:44;;;;;;;28.40;16.60;;;;;;;13.02;100.00;99114.67;214183;1285;140597;-86
2023/10/25 10:17:45;;;;;;;28.10;15.70;;;;;;;13.01;100.00;99111.70;214860;1285;99318;-85
2023/10/25 10:23:06;;;;;;;26.70;16.20;;;;;;;12.98;100.00;99114.42;214075;1285;140020;-86
2023/10/25 10:28:07;;;;;;;30.80;17.00;;;;;;;12.94;100.00;99115.70;214607;1286;140003;-85
2023/10/25 10:33:12;;;;;;;32.50;17.50;;;;;;;12.88;100.00;99111.69;214305;1288;140131;-85
2023/10/25 10:38:13;;;;;;;36.30;17.10;;;;;;;12.83;100.00;99109.89;215153;1285;139047;-85
2023/10/25 10:43:14;;;;;;;33.30;18.20;;;;;;;12.80;100.00;99108.70;213928;1284;140583;-86
2023/10/25 10:48:21;;;;;;;28.90;16.60;;;;;;;12.73;100.00;99107.39;214921;1288;97964;-85
2023/10/25 10:53:22;;;;;;;33.00;17.20;;;;;;;12.70;100.00;99101.85;214062;1288;140619;-86
2023/10/25 10:58:25;;;;;;;30.80;17.10;;;;;;;12.69;100.00;99099.50;214749;1286;140348;-86
2023/10/25 11:03:27;;;;;;;30.50;16.20;;;;;;;12.67;100.00;99099.30;214099;1288;140213;-86
2023/10/25 11:08:28;;;;;;;36.20;20.80;;;;;;;12.63;100.00;99105.30;214624;1288;139447;-86
2023/10/25 11:13:28;;;;;;;24.60;14.70;;;;;;;12.63;100.00;99101.12;214380;1288;140462;-85
2023/10/25 11:18:29;;;;;;;57.00;41.40;;;;;;;12.59;100.00;99099.92;214836;1288;99285;-86
2023/10/25 11:23:30;;;;;;;33.30;23.30;;;;;;;12.57;100.00;99098.92;214283;1285;139815;-86
2023/10/25 11:28:30;;;;;;;34.40;21.00;;;;;;;12.57;100.00;99087.91;214966;1283;140193;-87
2023/10/25 11:33:42;;;;;;;24.20;15.10;;;;;;;12.56;100.00;99083.89;214409;1285;139917;-86
2023/10/25 11:38:44;;;;;;;29.90;20.70;;;;;;;12.55;100.00;99081.09;214591;1288;139121;-86
2023/10/25 11:43:47;;;;;;;24.10;15.00;;;;;;;12.55;100.00;99081.39;213984;1288;140298;-86
2023/10/25 11:48:50;;;;;;;28.90;17.10;;;;;;;12.57;100.00;99077.82;214895;1285;138981;-86
2023/10/25 11:53:50;;;;;;;29.70;15.80;;;;;;;12.58;100.00;99077.16;214348;1284;140608;-86
2023/10/25 11:58:51;;;;;;;27.10;17.10;;;;;;;12.61;100.00;99074.82;214860;1285;139864;-87
2023/10/25 12:03:52;;;;;;;27.90;17.60;;;;;;;12.62;100.00;99073.84;214076;1285;140579;-86
2023/10/25 12:08:52;;;;;;;28.90;17.10;;;;;;;12.64;100.00;99076.19;214607;1286;139252;-86
2023/10/25 12:13:53;;;;;;;31.00;16.60;;;;;;;12.67;100.00;99078.33;214402;1285;141551;-86
2023/10/25 12:18:54;;;;;;;31.60;17.50;;;;;;;12.71;100.00;99079.83;214908;1286;139416;-86
2023/10/25 12:23:54;;;;;;;32.80;18.30;;;;;;;12.72;100.00;99074.21;214291;1285;140788;-86
2023/10/25 12:28:55;;;;;;;28.80;17.20;;;;;;;12.74;100.00;99072.20;214571;1285;140023;-86
2023/10/25 12:33:55;;;;;;;33.20;17.40;;;;;;;12.77;100.00;99070.65;214399;1285;140371;-85
2023/10/25 12:38:56;;;;;;;31.00;16.90;;;;;;;12.80;100.00;99070.05;214714;1287;139438;-87
2023/10/25 12:43:56;;;;;;;29.90;16.50;;;;;;;12.84;100.00;99072.23;214253;1287;140933;-87
2023/10/25 12:48:58;;;;;;;31.60;17.20;;;;;;;12.84;100.00;99074.04;214844;1286;139594;-87
2023/10/25 12:53:58;;;;;;;27.40;16.60;;;;;;;12.85;100.00;99076.16;214495;1288;139817;-87
2023/10/25 12:58:59;;;;;;;26.90;15.20;;;;;;;12.83;100.00;99076.91;214996;1285;140995;-86
2023/10/25 13:03:59;;;;;;;28.60;15.90;;;;;;;12.81;100.00;99069.23;214263;1285;139957;-85
2023/10/25 13:09:00;;;;;;;25.90;15.80;;;;;;;12.80;100.00;99071.37;214631;1286;139061;-85
2023/10/25 13:14:02;;;;;;;26.10;15.90;;;;;;;12.80;100.00;99070.75;214554;1288;140324;-86
2023/10/25 13:19:03;;;;;;;29.00;16.60;;;;;;;12.81;100.00;99066.54;214657;1285;140315;-86
2023/10/25 13:24:04;;;;;;;23.80;15.60;;;;;;;12.80;100.00;99066.02;214458;1284;141181;-86
2023/10/25 13:29:05;;;;;;;24.50;15.20;;;;;;;12.79;100.00;99066.50;214872;1288;139295;-86
2023/10/25 13:34:06;;;;;;;25.70;13.90;;;;;;;12.76;100.00;99061.43;214163;1285;140130;-86
2023/10/25 13:39:06;;;;;;;19.90;11.60;;;;;;;12.75;100.00;99058.06;214881;1285;140293;-86
2023/10/25 13:44:07;;;;;;;19.90;12.30;;;;;;;12.73;100.00;99055.56;214403;1285;139977;-86
2023/10/25 13:49:08;;;;;;;21.40;13.90;;;;;;;12.72;100.00;99058.75;214387;1285;140704;-87
2023/10/25 13:54:09;;;;;;;27.20;13.50;;;;;;;12.67;100.00;99060.12;214958;1285;97996;-87
2023/10/25 13:59:09;;;;;;;21.80;13.70;;;;;;;12.61;100.00;99059.99;214136;1288;140173;-87
2023/10/25 14:04:10;;;;;;;20.60;13.30;;;;;;;12.54;100.00;99060.91;214852;1285;139000;-87
2023/10/25 14:09:11;;;;;;;24.70;15.40;;;;;;;12.48;100.00;99066.92;214102;1285;140163;-87
2023/10/25 14:14:13;;;;;;;24.00;15.60;;;;;;;12.43;100.00;99059.29;214591;1285;139692;-88
2023/10/25 14:19:15;;;;;;;26.20;15.50;;;;;;;12.36;100.00;99051.47;214199;1285;141929;-87
2023/10/25 14:24:16;;;;;;;28.80;18.20;;;;;;;12.31;100.00;99051.88;214898;1285;107020;-87
2023/10/25 14:29:17;;;;;;;32.30;19.60;;;;;;;12.22;100.00;99051.39;214254;1285;140775;-89
2023/10/25 14:34:17;;;;;;;35.50;20.30;;;;;;;12.18;100.00;99051.56;214800;1284;138950;-88
2023/10/25 14:39:18;;;;;;;36.90;20.60;;;;;;;12.11;100.00;99053.33;214253;1284;140762;-88
2023/10/25 14:44:18;;;;;;;35.20;18.50;;;;;;;12.04;100.00;99050.06;214890;1285;139169;-87
2023/10/25 14:49:19;;;;;;;44.10;22.30;;;;;;;12.01;100.00;99043.66;214448;1288;140555;-88
2023/10/25 14:54:20;;;;;;;39.70;22.30;;;;;;;11.96;100.00;99037.52;215141;1285;99290;-87
2023/10/25 14:59:20;;;;;;;37.90;20.10;;;;;;;11.91;100.00;99030.67;214141;1285;139996;-86
2023/10/25 15:04:24;;;;;;;40.60;22.30;;;;;;;11.88;100.00;99029.23;214836;1284;139879;-86
2023/10/25 15:09:24;;;;;;;37.80;21.30;;;;;;;11.85;100.00;99022.66;214335;1285;140376;-86
2023/10/25 15:14:25;;;;;;;35.20;21.60;;;;;;;11.83;100.00;99016.55;214953;1288;140219;-86
2023/10/25 15:19:25;;;;;;;42.80;26.90;;;;;;;11.83;100.00;99009.92;214402;1288;140338;-87
2023/10/25 15:24:26;;;;;;;73.30;41.00;;;;;;;11.83;100.00;99010.41;215005;1285;98045;-87
2023/10/25 15:29:26;;;;;;;45.10;27.50;;;;;;;11.82;100.00;99007.66;214242;1288;140264;-86
2023/10/25 15:34:27;;;;;;;45.20;28.00;;;;;;;11.81;100.00;99002.96;214584;1285;139665;-86
2023/10/25 15:39:28;;;;;;;45.50;25.50;;;;;;;11.81;100.00;99002.09;214307;1285;140186;-88
2023/10/25 15:44:29;;;;;;;40.20;24.40;;;;;;;11.80;100.00;98995.73;214670;1285;139194;-87
2023/10/25 15:49:29;;;;;;;47.30;26.60;;;;;;;11.79;100.00;98997.16;214116;1288;140795;-87
2023/10/25 15:54:32;;;;;;;39.90;24.60;;;;;;;11.77;100.00;98995.30;214790;1285;97979;-88
2023/10/25 15:59:33;;;;;;;39.70;25.90;;;;;;;11.75;100.00;98989.44;214513;1285;140859;-88
2023/10/25 16:04:33;;;;;;;40.40;24.10;;;;;;;11.75;100.00;98987.94;214905;1288;139830;-89
2023/10/25 16:09:34;;;;;;;40.10;25.10;;;;;;;11.68;100.00;98982.86;214514;1286;140739;-87
2023/10/25 16:14:34;;;;;;;39.30;25.50;;;;;;;11.66;100.00;98982.73;214630;1285;139713;-88
2023/10/25 16:19:35;;;;;;;43.10;26.90;;;;;;;11.65;100.00;98983.39;214446;1285;140333;-88
2023/10/25 16:24:35;;;;;;;43.70;25.80;;;;;;;11.60;100.00;98985.27;214921;1286;139891;-87
2023/10/25 16:29:36;;;;;;;43.70;25.30;;;;;;;11.58;100.00;98985.68;214673;1288;140325;-86
2023/10/25 16:34:36;;;;;;;44.10;25.60;;;;;;;11.56;100.00;98989.33;215552;1288;139530;-87
2023/10/25 16:39:37;;;;;;;44.60;25.80;;;;;;;11.54;100.00;98993.54;214602;1288;140358;-86
2023/10/25 16:44:38;;;;;;;45.10;25.70;;;;;;;11.52;100.00;98985.68;214824;1288;139728;-87
2023/10/25 16:49:39;;;;;;;47.50;27.60;;;;;;;11.53;100.00;98986.15;214521;1288;141394;-87
2023/10/25 16:54:40;;;;;;;43.90;25.60;;;;;;;11.53;100.00;98989.62;214871;1288;139779;-87
2023/10/25 16:59:41;;;;;;;40.10;24.70;;;;;;;11.52;100.00;98988.38;214325;1288;140070;-89
2023/10/25 17:04:42;;;;;;;41.70;25.20;;;;;;;11.50;100.00;98986.05;214770;1284;139413;-87
2023/10/25 17:09:42;;;;;;;45.50;28.50;;;;;;;11.47;100.00;98980.57;214236;1287;140304;-88
2023/10/25 17:14:43;;;;;;;41.90;26.50;;;;;;;11.46;100.00;98976.80;215243;1285;139278;-85
2023/10/25 17:19:44;;;;;;;44.10;28.20;;;;;;;11.45;100.00;98971.23;214839;1288;140076;-86
2023/10/25 17:24:45;;;;;;;47.90;28.30;;;;;;;11.42;100.00;98969.23;215291;1285;140362;-87
2023/10/25 17:29:45;;;;;;;46.30;28.10;;;;;;;11.40;100.00;98969.83;215090;1288;140360;-87
2023/10/25 17:34:46;;;;;;;40.70;25.50;;;;;;;11.38;100.00;98962.38;215512;1288;139843;-86
2023/10/25 17:39:48;;;;;;;51.60;27.60;;;;;;;11.39;100.00;98964.02;214980;1283;140313;-86
2023/10/25 17:44:51;;;;;;;53.20;29.80;;;;;;;11.40;100.00;98961.64;215184;1286;139873;-86
2023/10/25 17:49:52;;;;;;;65.70;30.40;;;;;;;11.41;100.00;98958.40;213930;1288;140431;-86
2023/10/25 17:54:53;;;;;;;51.70;27.80;;;;;;;11.41;100.00;98957.93;214832;1288;140517;-86
2023/10/25 17:59:54;;;;;;;50.50;28.30;;;;;;;11.40;100.00;98949.11;214349;1285;140663;-87
2023/10/25 18:04:54;;;;;;;43.60;24.80;;;;;;;11.39;100.00;98950.00;214872;1288;139453;-86
2023/10/25 18:09:55;;;;;;;38.90;23.90;;;;;;;11.38;100.00;98949.39;214315;1285;140123;-86
2023/10/25 18:14:56;;;;;;;37.30;23.50;;;;;;;11.39;100.00;98952.36;215216;1285;139966;-86
2023/10/25 18:20:00;;;;;;;43.30;24.10;;;;;;;11.35;100.00;98950.38;214515;1286;141377;-86
2023/10/25 18:25:00;;;;;;;39.00;24.10;;;;;;;11.33;100.00;98948.77;214885;1288;139682;-86
2023/10/25 18:30:01;;;;;;;35.40;23.20;;;;;;;11.32;100.00;98949.02;214649;1285;140047;-86
2023/10/25 18:35:01;;;;;;;38.50;23.20;;;;;;;11.28;100.00;98953.41;215082;1288;140196;-86
2023/10/25 18:40:03;;;;;;;40.80;25.60;;;;;;;11.28;100.00;98949.94;214552;1285;140385;-87
2023/10/25 18:45:04;;;;;;;38.30;23.40;;;;;;;11.27;100.00;98944.85;216044;1288;139868;-87
2023/10/25 18:50:06;;;;;;;42.30;24.30;;;;;;;11.27;100.00;98944.22;214209;1288;225122;-86
2023/10/25 18:55:07;;;;;;;42.90;25.50;;;;;;;11.25;100.00;98953.67;214640;1285;139849;-86
2023/10/25 19:00:08;;;;;;;39.60;25.30;;;;;;;11.22;100.00;98951.45;214188;1286;143478;-85
2023/10/25 19:05:08;;;;;;;38.00;22.90;;;;;;;11.19;100.00;98942.68;214803;1289;139404;-85
2023/10/25 19:10:11;;;;;;;38.10;23.40;;;;;;;11.15;100.00;98929.92;214278;1288;140558;-86
2023/10/25 19:15:12;;;;;;;35.50;21.90;;;;;;;11.10;100.00;98924.97;214862;1288;140513;-86
2023/10/25 19:20:13;;;;;;;45.50;29.50;;;;;;;11.08;100.00;98919.96;214605;1285;140157;-86
2023/10/25 19:25:13;;;;;;;46.90;27.60;;;;;;;11.07;100.00;98923.69;215033;1285;139273;-90
2023/10/25 19:30:15;;;;;;;39.30;24.00;;;;;;;11.08;100.00;98922.96;214869;1285;140104;-90
2023/10/25 19:35:15;;;;;;;41.20;25.40;;;;;;;11.07;100.00;98926.59;215076;1285;139643;-90
2023/10/25 19:40:17;;;;;;;43.90;26.20;;;;;;;11.03;100.00;98920.45;214126;1285;140250;-88
2023/10/25 19:45:17;;;;;;;47.50;29.30;;;;;;;11.00;100.00;98921.02;214952;1288;139559;-90
2023/10/25 19:50:18;;;;;;;41.80;27.80;;;;;;;10.97;100.00;98917.22;214782;1288;140133;-89
2023/10/25 19:55:19;;;;;;;38.10;24.40;;;;;;;10.97;100.00;98911.24;215227;1288;139100;-90
2023/10/25 20:00:19;;;;;;;40.20;25.50;;;;;;;10.94;100.00;98902.48;214601;1285;140437;-88
2023/10/25 20:05:20;;;;;;;37.40;23.10;;;;;;;10.88;100.00;98898.78;214937;1288;139756;-90
2023/10/25 20:10:21;;;;;;;59.40;36.10;;;;;;;10.84;100.00;98896.80;214536;1285;140247;-91
2023/10/25 20:15:22;;;;;;;46.00;30.40;;;;;;;10.76;100.00;98902.11;215351;1288;139439;-93
2023/10/25 20:20:23;;;;;;;42.60;28.00;;;;;;;10.63;100.00;98898.20;214738;1288;140425;-93
2023/10/25 20:25:23;;;;;;;42.10;26.10;;;;;;;10.50;100.00;98891.87;215072;1288;140665;-93
2023/10/25 20:30:24;;;;;;;44.00;27.00;;;;;;;10.38;100.00;98890.21;214682;1286;140062;-91
2023/10/25 20:35:25;;;;;;;38.70;24.70;;;;;;;10.26;100.00;98892.48;215093;1288;139584;-91
2023/10/25 20:40:27;;;;;;;44.90;27.70;;;;;;;10.02;100.00;98890.80;214726;1286;140114;-92
2023/10/25 20:45:28;;;;;;;47.30;27.90;;;;;;;9.91;100.00;98903.61;215421;1285;139555;-93
2023/10/25 20:50:28;;;;;;;34.90;23.40;;;;;;;9.78;100.00;98899.83;214666;1285;139759;-92
2023/10/25 20:55:29;;;;;;;37.60;22.40;;;;;;;9.58;100.00;98896.81;215158;1289;139612;-93
2023/10/25 21:00:30;;;;;;;37.10;22.30;;;;;;;9.49;100.00;98893.30;214750;1289;140399;-93
2023/10/25 21:05:30;;;;;;;32.60;19.90;;;;;;;9.37;100.00;98883.90;215164;1288;138414;-93
2023/10/25 21:10:31;;;;;;;40.40;24.70;;;;;;;9.19;100.00;98881.30;214855;1286;141018;-92
2023/10/25 21:15:34;;;;;;;39.60;24.40;;;;;;;9.06;100.00;98878.45;215225;1291;139900;-93
2023/10/25 21:20:35;;;;;;;45.90;26.50;;;;;;;8.96;100.00;98867.70;214878;1289;139891;-93
2023/10/25 21:25:36;;;;;;;49.10;27.50;;;;;;;8.87;100.00;98867.39;215974;1289;139276;-93
2023/10/25 21:30:37;;;;;;;68.30;31.60;;;;;;;8.78;100.00;98868.77;215297;1291;140607;-91
2023/10/25 21:35:38;;;;;;;78.80;39.00;;;;;;;8.68;100.00;98865.55;215917;1285;97962;-92
2023/10/25 21:40:40;;;;;;;71.60;33.80;;;;;;;8.58;100.00;98859.81;215606;1292;139943;-91
2023/10/25 21:45:40;;;;;;;82.00;42.00;;;;;;;8.50;100.00;98853.60;215905;1286;139851;-92
2023/10/25 21:50:41;;;;;;;83.90;39.50;;;;;;;8.44;100.00;98855.19;214989;1289;140237;-91
2023/10/25 21:55:41;;;;;;;100.50;46.40;;;;;;;8.37;100.00;98842.08;215967;1289;139157;-93
2023/10/25 22:00:42;;;;;;;111.30;53.40;;;;;;;8.28;100.00;98840.25;215348;1288;140874;-92
2023/10/25 22:05:45;;;;;;;116.80;50.30;;;;;;;8.26;100.00;98841.91;216019;1288;97984;-93
2023/10/25 22:10:46;;;;;;;90.80;40.70;;;;;;;8.24;100.00;98836.05;214970;1288;140050;-92
2023/10/25 22:15:46;;;;;;;75.80;41.10;;;;;;;8.17;100.00;98823.91;215401;1289;140063;-93
2023/10/25 22:20:47;;;;;;;70.60;38.30;;;;;;;8.17;100.00;98821.48;215359;1288;139755;-92